createdAt,value
2018-10-09T00:01:47.855Z,84.83
2018-10-09T00:04:17.298Z,84.91
2018-10-09T00:06:46.736Z,84.79
2018-10-09T00:09:16.052Z,84.74
2018-10-09T00:11:45.501Z,84.89
2018-10-09T00:14:14.843Z,85.51
2018-10-09T00:16:44.154Z,85.75
2018-10-09T00:19:13.530Z,85.98
2018-10-09T00:21:42.905Z,86.38
2018-10-09T00:24:12.261Z,85.89
2018-10-09T00:26:41.724Z,86.04
2018-10-09T00:29:11.149Z,85.69
2018-10-09T00:31:40.641Z,85.55
2018-10-09T00:34:10.146Z,85.82
2018-10-09T00:36:39.657Z,85.55
2018-10-09T00:39:10.568Z,85.93
2018-10-09T00:41:40.045Z,86.47
2018-10-09T00:44:09.533Z,86.16
2018-10-09T00:46:38.976Z,86.32
2018-10-09T00:49:08.293Z,86.40
2018-10-09T00:51:37.679Z,86.90
2018-10-09T00:54:07.038Z,87.50
2018-10-09T00:56:36.378Z,86.92
2018-10-09T00:59:05.816Z,87.43
2018-10-09T01:01:35.166Z,87.30
2018-10-09T01:04:04.461Z,87.08
2018-10-09T01:06:33.798Z,87.96
2018-10-09T01:09:03.230Z,88.73
2018-10-09T01:11:32.485Z,89.17
2018-10-09T01:14:01.763Z,88.03
2018-10-09T01:16:31.085Z,87.63
2018-10-09T01:19:00.468Z,88.42
2018-10-09T01:21:29.759Z,88.65
2018-10-09T01:23:59.143Z,88.34
2018-10-09T01:26:28.479Z,88.48
2018-10-09T01:28:57.875Z,88.09
2018-10-09T01:31:27.482Z,88.15
2018-10-09T01:33:56.972Z,87.72
2018-10-09T01:36:26.605Z,88.55
2018-10-09T01:38:56.093Z,88.22
2018-10-09T01:41:25.657Z,88.05
2018-10-09T01:43:55.173Z,88.13
2018-10-09T01:46:24.886Z,88.32
2018-10-09T01:48:54.448Z,88.32
2018-10-09T01:51:24.154Z,87.75
2018-10-09T01:53:53.772Z,87.52
2018-10-09T01:56:23.327Z,87.43
2018-10-09T01:58:53.042Z,87.50
2018-10-09T02:01:22.663Z,87.70
2018-10-09T02:03:52.314Z,86.93
2018-10-09T02:06:21.882Z,86.73
2018-10-09T02:08:51.692Z,87.12
2018-10-09T02:11:21.504Z,87.01
2018-10-09T02:13:51.098Z,86.57
2018-10-09T02:16:20.973Z,86.71
2018-10-09T02:18:50.641Z,86.41
2018-10-09T02:21:20.330Z,85.65
2018-10-09T02:23:50.260Z,85.86
2018-10-09T02:26:20.107Z,86.30
2018-10-09T02:28:50.105Z,85.53
2018-10-09T02:31:19.924Z,85.64
2018-10-09T02:33:50.513Z,85.39
2018-10-09T02:36:20.485Z,85.11
2018-10-09T02:38:50.266Z,85.62
2018-10-09T02:41:19.992Z,85.46
2018-10-09T02:43:49.803Z,85.26
2018-10-09T02:46:19.255Z,85.49
2018-10-09T02:48:49.742Z,85.39
2018-10-09T02:51:19.660Z,85.57
2018-10-09T02:53:49.277Z,85.36
2018-10-09T02:56:19.177Z,85.06
2018-10-09T02:58:48.640Z,84.86
2018-10-09T03:01:18.479Z,85.09
2018-10-09T03:03:48.101Z,85.49
2018-10-09T03:06:17.591Z,85.71
2018-10-09T03:08:47.094Z,84.81
2018-10-09T03:11:16.444Z,84.95
2018-10-09T03:13:45.818Z,85.55
2018-10-09T03:16:15.181Z,85.62
2018-10-09T03:18:44.521Z,85.24
2018-10-09T03:21:13.829Z,85.22
2018-10-09T03:23:43.297Z,84.98
2018-10-09T03:26:12.741Z,85.35
2018-10-09T03:28:42.258Z,85.00
2018-10-09T03:31:11.802Z,85.71
2018-10-09T03:33:41.306Z,85.66
2018-10-09T03:36:10.833Z,85.28
2018-10-09T03:38:40.369Z,85.59
2018-10-09T03:41:10.116Z,85.60
2018-10-09T03:43:39.452Z,85.13
2018-10-09T03:46:08.980Z,85.69
2018-10-09T03:48:38.351Z,85.95
2018-10-09T03:51:07.755Z,85.72
2018-10-09T03:53:37.273Z,85.51
2018-10-09T03:56:06.703Z,85.07
2018-10-09T03:58:36.042Z,85.54
2018-10-09T04:01:05.457Z,84.96
2018-10-09T04:03:34.852Z,84.70
2018-10-09T04:06:04.221Z,84.90
2018-10-09T04:08:33.613Z,85.45
2018-10-09T04:11:02.936Z,85.96
2018-10-09T04:13:32.251Z,85.29
2018-10-09T04:16:01.580Z,85.62
2018-10-09T04:18:30.960Z,85.98
2018-10-09T04:21:00.345Z,86.63
2018-10-09T04:23:29.675Z,85.58
2018-10-09T04:25:59.029Z,85.67
2018-10-09T04:28:28.369Z,85.40
2018-10-09T04:30:57.691Z,85.54
2018-10-09T04:33:27.190Z,85.43
2018-10-09T04:35:56.718Z,85.88
2018-10-09T04:38:26.592Z,85.67
2018-10-09T04:40:56.290Z,86.03
2018-10-09T04:43:26.032Z,86.37
2018-10-09T04:45:55.780Z,85.37
2018-10-09T04:48:25.450Z,85.43
2018-10-09T04:50:54.941Z,85.15
2018-10-09T04:53:24.753Z,85.04
2018-10-09T04:55:54.354Z,85.81
2018-10-09T04:58:24.090Z,85.63
2018-10-09T05:00:53.710Z,85.60
2018-10-09T05:03:23.470Z,85.69
2018-10-09T05:05:53.227Z,86.32
2018-10-09T05:08:23.043Z,86.36
2018-10-09T05:10:52.799Z,85.62
2018-10-09T05:13:22.532Z,85.95
2018-10-09T05:15:52.390Z,85.90
2018-10-09T05:18:22.528Z,85.78
2018-10-09T05:20:52.523Z,85.90
2018-10-09T05:23:22.433Z,84.96
2018-10-09T05:25:52.154Z,85.56
2018-10-09T05:28:21.909Z,85.24
2018-10-09T05:30:51.742Z,85.57
2018-10-09T05:33:21.580Z,85.48
2018-10-09T05:35:51.557Z,85.62
2018-10-09T05:38:21.670Z,84.48
2018-10-09T05:40:51.586Z,85.28
2018-10-09T05:43:21.301Z,84.98
2018-10-09T05:45:51.085Z,85.10
2018-10-09T05:48:20.961Z,85.31
2018-10-09T05:50:51.160Z,85.75
2018-10-09T05:53:22.253Z,85.27
2018-10-09T05:55:52.373Z,85.32
2018-10-09T05:58:22.062Z,85.36
2018-10-09T06:00:51.885Z,85.21
2018-10-09T06:03:21.614Z,85.21
2018-10-09T06:05:51.513Z,85.15
2018-10-09T06:08:21.253Z,85.61
2018-10-09T06:10:51.003Z,85.71
2018-10-09T06:13:21.154Z,84.43
2018-10-09T06:15:51.487Z,84.98
2018-10-09T06:18:21.981Z,85.08
2018-10-09T06:20:51.948Z,85.33
2018-10-09T06:23:21.915Z,85.40
2018-10-09T06:25:52.217Z,85.09
2018-10-09T06:28:22.307Z,85.62
2018-10-09T06:30:51.939Z,84.94
2018-10-09T06:33:21.765Z,85.30
2018-10-09T06:35:51.583Z,85.81
2018-10-09T06:38:21.553Z,85.19
2018-10-09T06:40:51.141Z,85.04
2018-10-09T06:43:21.443Z,85.53
2018-10-09T06:45:51.140Z,85.42
2018-10-09T06:48:21.118Z,84.80
2018-10-09T06:50:51.500Z,85.76
2018-10-09T06:53:21.334Z,85.41
2018-10-09T06:55:51.043Z,85.33
2018-10-09T06:58:20.805Z,85.86
2018-10-09T07:00:50.591Z,85.67
2018-10-09T07:03:20.245Z,85.37
2018-10-09T07:05:49.997Z,85.20
2018-10-09T07:08:19.514Z,86.13
2018-10-09T07:10:49.311Z,86.39
2018-10-09T07:13:18.924Z,85.87
2018-10-09T07:15:48.824Z,86.35
2018-10-09T07:18:18.533Z,86.09
2018-10-09T07:20:48.118Z,86.01
2018-10-09T07:23:17.626Z,86.23
2018-10-09T07:25:47.244Z,85.98
2018-10-09T07:28:16.896Z,86.90
2018-10-09T07:30:46.291Z,85.42
2018-10-09T07:33:15.706Z,86.07
2018-10-09T07:35:45.052Z,85.45
2018-10-09T07:38:14.490Z,85.37
2018-10-09T07:40:44.126Z,85.26
2018-10-09T07:43:13.786Z,85.08
2018-10-09T07:45:43.125Z,85.02
2018-10-09T07:48:12.550Z,85.42
2018-10-09T07:50:42.105Z,85.02
2018-10-09T07:53:11.561Z,84.10
2018-10-09T07:55:40.972Z,84.55
2018-10-09T07:58:11.393Z,84.41
2018-10-09T08:00:40.736Z,84.65
2018-10-09T08:03:10.108Z,85.17
2018-10-09T08:05:39.441Z,85.39
2018-10-09T08:08:08.772Z,84.89
2018-10-09T08:10:38.156Z,84.31
2018-10-09T08:13:07.584Z,84.80
2018-10-09T08:15:36.934Z,84.13
2018-10-09T08:18:06.509Z,84.73
2018-10-09T08:20:35.915Z,84.09
2018-10-09T08:23:05.267Z,85.11
2018-10-09T08:25:34.580Z,84.63
2018-10-09T08:28:04.016Z,84.38
2018-10-09T08:30:33.404Z,84.38
2018-10-09T08:33:02.727Z,84.59
2018-10-09T08:35:32.072Z,84.08
2018-10-09T08:38:01.415Z,83.76
2018-10-09T08:40:30.786Z,83.78
2018-10-09T08:43:00.391Z,83.92
2018-10-09T08:45:29.764Z,84.03
2018-10-09T08:47:59.082Z,84.04
2018-10-09T08:50:28.404Z,83.57
2018-10-09T08:52:57.964Z,83.75
2018-10-09T08:55:27.577Z,83.28
2018-10-09T08:57:57.066Z,83.41
2018-10-09T09:00:26.736Z,83.18
2018-10-09T09:02:56.382Z,83.15
2018-10-09T09:05:26.044Z,82.81
2018-10-09T09:07:55.634Z,82.45
2018-10-09T09:10:25.772Z,82.40
2018-10-09T09:12:55.500Z,82.04
2018-10-09T09:15:25.363Z,82.54
2018-10-09T09:17:54.937Z,81.23
2018-10-09T09:20:24.845Z,81.83
2018-10-09T09:22:54.665Z,81.45
2018-10-09T09:25:24.381Z,81.51
2018-10-09T09:27:54.059Z,81.68
2018-10-09T09:30:23.958Z,82.34
2018-10-09T09:32:53.679Z,81.04
2018-10-09T09:35:23.105Z,81.07
2018-10-09T09:37:52.895Z,81.68
2018-10-09T09:40:22.600Z,80.52
2018-10-09T09:42:52.317Z,80.99
2018-10-09T09:45:22.193Z,80.86
2018-10-09T09:47:52.256Z,80.52
2018-10-09T09:50:22.138Z,80.51
2018-10-09T09:52:51.995Z,81.09
2018-10-09T09:55:21.922Z,81.21
2018-10-09T09:57:51.785Z,80.79
2018-10-09T10:00:26.595Z,80.09
2018-10-09T10:02:55.939Z,79.50
2018-10-09T10:05:25.544Z,79.24
2018-10-09T10:07:55.093Z,78.83
2018-10-09T10:10:24.770Z,79.01
2018-10-09T10:12:54.301Z,78.04
2018-10-09T10:15:23.870Z,78.67
2018-10-09T10:17:53.756Z,79.51
2018-10-09T10:20:23.312Z,78.41
2018-10-09T10:22:53.011Z,76.01
2018-10-09T10:25:22.630Z,76.72
2018-10-09T10:27:52.230Z,76.44
2018-10-09T10:30:21.734Z,76.45
2018-10-09T10:32:51.368Z,76.72
2018-10-09T10:35:21.246Z,77.47
2018-10-09T10:37:51.083Z,77.14
2018-10-09T10:40:20.768Z,77.11
2018-10-09T10:42:50.487Z,77.00
2018-10-09T10:45:20.293Z,78.14
2018-10-09T10:47:49.801Z,77.72
2018-10-09T10:50:19.509Z,77.33
2018-10-09T10:52:49.102Z,76.98
2018-10-09T10:55:18.722Z,76.44
2018-10-09T10:57:48.165Z,76.32
2018-10-09T11:00:17.662Z,76.21
2018-10-09T11:02:47.156Z,76.00
2018-10-09T11:05:16.521Z,76.04
2018-10-09T11:07:46.169Z,76.03
2018-10-09T11:10:15.494Z,75.23
2018-10-09T11:12:44.827Z,75.41
2018-10-09T11:15:14.235Z,76.39
2018-10-09T11:17:44.276Z,75.48
2018-10-09T11:20:13.881Z,75.24
2018-10-09T11:22:43.264Z,75.43
2018-10-09T11:25:12.586Z,75.12
2018-10-09T11:27:42.210Z,75.46
2018-10-09T11:30:11.539Z,74.25
2018-10-09T11:32:40.881Z,75.24
2018-10-09T11:35:10.358Z,75.43
2018-10-09T11:37:39.749Z,75.57
2018-10-09T11:40:09.077Z,74.98
2018-10-09T11:42:38.537Z,74.71
2018-10-09T11:45:08.027Z,75.22
2018-10-09T11:47:37.477Z,74.60
2018-10-09T11:50:07.632Z,75.07
2018-10-09T11:52:37.080Z,75.74
2018-10-09T11:55:06.470Z,74.87
2018-10-09T11:57:35.799Z,74.83
2018-10-09T12:00:05.785Z,74.61
2018-10-09T12:02:35.144Z,74.79
2018-10-09T12:05:04.555Z,74.46
2018-10-09T12:07:33.939Z,73.59
2018-10-09T12:10:03.298Z,72.99
2018-10-09T12:12:32.718Z,71.46
2018-10-09T12:15:02.040Z,72.06
2018-10-09T12:17:31.383Z,69.94
2018-10-09T12:20:00.812Z,70.07
2018-10-09T12:22:30.397Z,69.78
2018-10-09T12:24:59.730Z,68.89
2018-10-09T12:27:29.085Z,68.25
2018-10-09T12:29:58.562Z,68.79
2018-10-09T12:32:28.067Z,68.30
2018-10-09T12:34:57.874Z,68.98
2018-10-09T12:37:27.465Z,66.97
2018-10-09T12:39:57.311Z,67.51
2018-10-09T12:42:27.075Z,67.32
2018-10-09T12:44:56.638Z,67.22
2018-10-09T12:47:26.418Z,65.51
2018-10-09T12:49:56.559Z,65.69
2018-10-09T12:52:26.054Z,67.35
2018-10-09T12:54:55.616Z,66.64
2018-10-09T12:57:25.157Z,66.98
2018-10-09T12:59:54.920Z,66.48
2018-10-09T13:02:24.663Z,67.32
2018-10-09T13:04:54.465Z,65.86
2018-10-09T13:07:24.071Z,65.03
2018-10-09T13:09:53.562Z,65.15
2018-10-09T13:12:25.282Z,66.34
2018-10-09T13:14:54.945Z,64.37
2018-10-09T13:17:24.709Z,65.28
2018-10-09T13:19:54.901Z,65.80
2018-10-09T13:22:25.272Z,65.16
2018-10-09T13:24:54.517Z,65.90
2018-10-09T13:27:24.311Z,66.90
2018-10-09T13:29:54.113Z,67.91
2018-10-09T13:32:23.879Z,67.33
2018-10-09T13:34:53.442Z,66.58
2018-10-09T13:37:23.159Z,67.38
2018-10-09T13:39:52.894Z,66.83
2018-10-09T13:42:24.117Z,67.06
2018-10-09T13:44:53.835Z,67.63
2018-10-09T13:47:23.422Z,68.48
2018-10-09T13:49:52.846Z,67.32
2018-10-09T13:52:22.466Z,68.00
2018-10-09T13:54:52.099Z,67.24
2018-10-09T13:57:22.381Z,65.60
2018-10-09T13:59:51.966Z,64.51
2018-10-09T14:02:21.866Z,65.02
2018-10-09T14:04:52.013Z,64.87
2018-10-09T14:07:21.737Z,64.88
2018-10-09T14:09:51.201Z,65.93
2018-10-09T14:12:20.850Z,65.44
2018-10-09T14:14:50.895Z,66.36
2018-10-09T14:17:20.413Z,67.99
2018-10-09T14:19:49.822Z,67.09
2018-10-09T14:22:19.516Z,66.84
2018-10-09T14:24:49.162Z,66.12
2018-10-09T14:27:19.605Z,65.35
2018-10-09T14:29:49.872Z,65.39
2018-10-09T14:32:19.886Z,65.69
2018-10-09T14:34:50.292Z,66.37
2018-10-09T14:37:20.095Z,66.18
2018-10-09T14:39:50.429Z,65.42
2018-10-09T14:42:20.546Z,65.74
2018-10-09T14:44:50.841Z,65.15
2018-10-09T14:47:20.567Z,65.03
2018-10-09T14:49:50.165Z,65.50
2018-10-09T14:52:21.444Z,66.54
2018-10-09T14:54:50.995Z,65.65
2018-10-09T14:57:20.627Z,66.77
2018-10-09T14:59:50.246Z,67.68
2018-10-09T15:02:19.857Z,68.45
2018-10-09T15:04:49.977Z,69.31
2018-10-09T15:07:19.752Z,69.07
2018-10-09T15:09:49.304Z,69.23
2018-10-09T15:12:19.114Z,68.87
2018-10-09T15:14:48.879Z,69.55
2018-10-09T15:17:18.681Z,69.62
2018-10-09T15:19:48.186Z,68.99
2018-10-09T15:22:17.583Z,69.46
2018-10-09T15:24:47.360Z,69.46
2018-10-09T15:27:16.768Z,70.58
2018-10-09T15:29:46.101Z,70.41
2018-10-09T15:32:15.484Z,70.58
2018-10-09T15:34:44.891Z,70.80
2018-10-09T15:37:14.206Z,71.38
2018-10-09T15:39:43.631Z,72.77
2018-10-09T15:42:17.345Z,73.27
2018-10-09T15:44:46.709Z,73.49
2018-10-09T15:47:16.493Z,73.30
2018-10-09T15:49:46.967Z,73.59
2018-10-09T15:52:16.367Z,73.92
2018-10-09T15:54:45.689Z,74.15
2018-10-09T15:57:15.133Z,75.40
2018-10-09T15:59:44.667Z,75.16
2018-10-09T16:02:14.062Z,75.89
2018-10-09T16:04:43.439Z,76.15
2018-10-09T16:07:12.825Z,75.80
2018-10-09T16:09:42.146Z,76.21
2018-10-09T16:12:11.457Z,76.18
2018-10-09T16:14:40.803Z,76.53
2018-10-09T16:17:10.205Z,77.02
2018-10-09T16:19:39.561Z,77.19
2018-10-09T16:22:08.863Z,77.22
2018-10-09T16:24:38.190Z,77.43
2018-10-09T16:27:07.517Z,78.06
2018-10-09T16:29:36.859Z,78.12
2018-10-09T16:32:06.258Z,77.74
2018-10-09T16:34:35.688Z,78.23
2018-10-09T16:37:05.141Z,78.22
2018-10-09T16:39:34.465Z,78.16
2018-10-09T16:42:04.971Z,78.73
2018-10-09T16:44:34.314Z,78.92
2018-10-09T16:47:05.319Z,79.18
2018-10-09T16:49:36.382Z,78.87
2018-10-09T16:52:05.748Z,78.98
2018-10-09T16:54:35.086Z,79.47
2018-10-09T16:57:11.365Z,78.79
2018-10-09T16:59:40.669Z,78.90
2018-10-09T17:02:10.061Z,79.21
2018-10-09T17:04:39.527Z,79.50
2018-10-09T17:07:08.878Z,79.22
2018-10-09T17:09:38.202Z,79.08
2018-10-09T17:12:07.568Z,79.51
2018-10-09T17:14:36.897Z,79.41
2018-10-09T17:17:06.350Z,79.63
2018-10-09T17:19:35.733Z,80.19
2018-10-09T17:22:05.190Z,79.97
2018-10-09T17:24:34.496Z,80.43
2018-10-09T17:27:03.810Z,80.15
2018-10-09T17:29:33.186Z,80.08
2018-10-09T17:32:02.654Z,80.21
2018-10-09T17:34:31.979Z,80.22
2018-10-09T17:37:01.293Z,80.78
2018-10-09T17:39:30.658Z,80.57
2018-10-09T17:42:01.067Z,80.62
2018-10-09T17:44:30.808Z,80.59
2018-10-09T17:47:04.501Z,80.58
2018-10-09T17:49:33.853Z,80.57
2018-10-09T17:52:03.168Z,80.61
2018-10-09T17:54:32.818Z,80.77
2018-10-09T17:57:02.166Z,80.83
2018-10-09T17:59:31.695Z,80.70
2018-10-09T18:02:03.090Z,80.44
2018-10-09T18:04:32.472Z,80.69
2018-10-09T18:07:01.821Z,80.91
2018-10-09T18:09:31.184Z,80.18
2018-10-09T18:12:00.609Z,80.47
2018-10-09T18:14:29.972Z,81.13
2018-10-09T18:16:59.321Z,81.74
2018-10-09T18:19:28.725Z,81.21
2018-10-09T18:21:58.151Z,81.67
2018-10-09T18:24:27.841Z,81.77
2018-10-09T18:26:57.634Z,82.07
2018-10-09T18:29:28.931Z,82.11
2018-10-09T18:31:58.250Z,82.38
2018-10-09T18:34:27.555Z,82.15
2018-10-09T18:36:57.034Z,81.74
2018-10-09T18:39:27.451Z,82.45
2018-10-09T18:41:57.006Z,81.92
2018-10-09T18:44:26.478Z,82.32
2018-10-09T18:46:57.367Z,81.98
2018-10-09T18:49:29.340Z,81.77
2018-10-09T18:52:04.282Z,82.08
2018-10-09T18:54:35.201Z,81.98
2018-10-09T18:57:04.750Z,82.24
2018-10-09T18:59:39.750Z,82.53
2018-10-09T19:04:49.474Z,82.72
2018-10-09T19:07:18.702Z,83.12
2018-10-09T19:09:47.933Z,82.17
2018-10-09T19:12:17.108Z,82.75
2018-10-09T19:14:46.289Z,82.98
2018-10-09T19:17:15.474Z,82.73
2018-10-09T19:19:44.625Z,82.91
2018-10-09T19:22:13.949Z,82.82
2018-10-09T19:24:43.173Z,82.45
2018-10-09T19:27:12.253Z,82.82
2018-10-09T19:29:41.498Z,83.05
2018-10-09T19:32:10.670Z,83.22
2018-10-09T19:34:39.801Z,83.05
2018-10-09T19:37:09.258Z,82.84
2018-10-09T19:39:38.436Z,82.79
2018-10-09T19:42:07.967Z,83.39
2018-10-09T19:44:37.222Z,82.88
2018-10-09T19:47:06.464Z,83.29
2018-10-09T19:49:35.926Z,83.40
2018-10-09T19:52:05.057Z,83.90
2018-10-09T19:54:34.210Z,83.61
2018-10-09T19:57:03.378Z,83.49
2018-10-09T19:59:32.593Z,83.31
2018-10-09T20:02:01.784Z,83.12
2018-10-09T20:04:30.954Z,82.98
2018-10-09T20:07:00.206Z,83.37
2018-10-09T20:09:29.389Z,83.55
2018-10-09T20:11:58.600Z,83.51
2018-10-09T20:14:27.815Z,83.29
2018-10-09T20:16:56.976Z,83.61
2018-10-09T20:19:26.125Z,83.78
2018-10-09T20:21:55.310Z,83.63
2018-10-09T20:24:24.617Z,83.32
2018-10-09T20:26:53.695Z,83.72
2018-10-09T20:29:22.880Z,83.72
2018-10-09T20:31:52.043Z,83.78
2018-10-09T20:34:21.190Z,83.58
2018-10-09T20:36:50.430Z,83.76
2018-10-09T20:39:22.378Z,83.55
2018-10-09T20:41:51.763Z,83.93
2018-10-09T20:44:20.851Z,83.98
2018-10-09T20:46:50.017Z,84.24
2018-10-09T20:49:19.177Z,84.12
2018-10-09T20:51:48.340Z,84.72
2018-10-09T20:54:17.565Z,84.37
2018-10-09T20:56:47.057Z,84.52
2018-10-09T20:59:16.347Z,84.29
2018-10-09T21:01:45.554Z,84.17
2018-10-09T21:04:14.950Z,84.11
2018-10-09T21:06:44.146Z,84.08
2018-10-09T21:09:13.329Z,83.72
2018-10-09T21:11:42.520Z,83.98
2018-10-09T21:14:11.689Z,84.61
2018-10-09T21:16:40.835Z,83.99
2018-10-09T21:19:10.081Z,83.72
2018-10-09T21:21:39.234Z,83.56
2018-10-09T21:24:08.385Z,84.50
2018-10-09T21:26:37.600Z,83.76
2018-10-09T21:29:07.061Z,83.42
2018-10-09T21:31:36.365Z,83.95
2018-10-09T21:34:05.609Z,83.97
2018-10-09T21:36:34.814Z,83.84
2018-10-09T21:39:05.305Z,83.87
2018-10-09T21:41:34.449Z,84.00
2018-10-09T21:44:03.722Z,84.10
2018-10-09T21:46:33.230Z,84.53
2018-10-09T21:49:02.520Z,84.59
2018-10-09T21:51:31.680Z,84.35
2018-10-09T21:54:00.823Z,84.36
2018-10-09T21:56:29.979Z,84.57
2018-10-09T21:58:59.284Z,84.14
2018-10-09T22:01:28.417Z,84.57
2018-10-09T22:03:57.566Z,84.97
2018-10-09T22:06:26.733Z,84.79
2018-10-09T22:08:55.945Z,84.87
2018-10-09T22:11:25.123Z,84.94
2018-10-09T22:13:54.277Z,85.06
2018-10-09T22:16:23.591Z,85.89
2018-10-09T22:18:52.727Z,85.70
2018-10-09T22:21:21.909Z,85.65
2018-10-09T22:23:51.041Z,85.20
2018-10-09T22:26:20.222Z,85.11
2018-10-09T22:28:49.373Z,86.10
2018-10-09T22:31:18.540Z,86.33
2018-10-09T22:33:47.721Z,85.92
2018-10-09T22:36:16.862Z,85.66
2018-10-09T22:38:46.001Z,85.61
2018-10-09T22:41:15.162Z,85.47
2018-10-09T22:43:44.318Z,86.38
2018-10-09T22:46:13.459Z,86.32
2018-10-09T22:48:42.601Z,85.91
2018-10-09T22:51:11.770Z,84.85
2018-10-09T22:53:40.917Z,85.42
2018-10-09T22:56:10.058Z,84.88
2018-10-09T22:58:39.210Z,84.85
2018-10-09T23:01:08.361Z,85.18
2018-10-09T23:03:37.513Z,85.51
2018-10-09T23:06:06.879Z,85.23
2018-10-09T23:08:36.021Z,84.76
2018-10-09T23:11:05.198Z,84.97
2018-10-09T23:13:34.393Z,84.69
2018-10-09T23:16:03.549Z,84.77
2018-10-09T23:18:32.702Z,84.79
2018-10-09T23:21:01.906Z,84.30
2018-10-09T23:23:31.064Z,85.09
2018-10-09T23:26:00.181Z,84.48
2018-10-09T23:28:29.309Z,84.82
2018-10-09T23:30:58.470Z,84.73
2018-10-09T23:33:27.657Z,84.78
2018-10-09T23:35:56.826Z,85.03
2018-10-09T23:38:25.974Z,84.71
2018-10-09T23:40:55.185Z,84.93
2018-10-09T23:43:24.345Z,84.56
2018-10-09T23:45:53.507Z,84.92
2018-10-09T23:48:22.659Z,85.41
2018-10-09T23:50:51.808Z,85.38
2018-10-09T23:53:20.962Z,85.11
2018-10-09T23:55:50.126Z,85.10
2018-10-09T23:58:19.288Z,84.61
